Time;durP1;ratioP1;P1;durP2;ratioP2;P2;SDS_P1;SDS_P2;PMS_P1;PMS_P2;Temp;Humidity;BMP_temperature;BMP_pressure;BME280_temperature;BME280_humidity;BME280_pressure;Samples;Min_cycle;Max_cycle;Signal;HPM_P1;HPM_P2
2021/03/23 00:01:33;;;;;;;7.30;2.95;;;;;;;-1.13;65.55;98827.16;3552551;27;20530;-51
2021/03/23 00:03:21;;;;;;;6.65;2.53;;;;;;;-1.16;65.45;98821.94;3549165;27;20464;-50
2021/03/23 00:05:06;;;;;;;5.90;2.67;;;;;;;-1.19;65.80;98824.34;3552783;27;20050;-50
2021/03/23 00:06:47;;;;;;;8.93;3.60;;;;;;;-1.22;65.54;98826.75;3551201;27;20053;-50
2021/03/23 00:08:31;;;;;;;8.35;2.72;;;;;;;-1.23;65.71;98825.00;3552230;27;20103;-56
2021/03/23 00:10:14;;;;;;;10.27;2.65;;;;;;;-1.27;66.15;98825.66;3549676;27;20058;-57
2021/03/23 00:11:56;;;;;;;7.22;2.63;;;;;;;-1.30;65.84;98834.00;3551596;27;20096;-56
2021/03/23 00:13:39;;;;;;;6.65;2.65;;;;;;;-1.33;65.95;98833.88;3549059;27;20423;-56
2021/03/23 00:15:22;;;;;;;7.32;2.80;;;;;;;-1.35;66.39;98832.94;3548872;27;20061;-57
2021/03/23 00:17:04;;;;;;;8.73;3.22;;;;;;;-1.37;66.32;98831.97;3552509;27;20053;-57
2021/03/23 00:18:46;;;;;;;10.40;4.88;;;;;;;-1.40;66.54;98828.41;3551249;27;20043;-56
2021/03/23 00:20:28;;;;;;;12.30;4.93;;;;;;;-1.44;66.61;98829.94;3551648;27;20057;-57
2021/03/23 00:22:09;;;;;;;14.70;6.93;;;;;;;-1.48;66.24;98823.84;3552311;27;20099;-56
2021/03/23 00:23:51;;;;;;;14.60;6.43;;;;;;;-1.51;66.40;98828.78;3551364;27;20112;-57
2021/03/23 00:25:32;;;;;;;11.57;5.13;;;;;;;-1.53;66.79;98824.44;3552411;27;20065;-56
2021/03/23 00:27:13;;;;;;;12.35;4.95;;;;;;;-1.55;66.35;98829.44;3548894;27;20099;-56
2021/03/23 00:28:56;;;;;;;12.45;4.40;;;;;;;-1.58;66.56;98824.19;3552377;27;20082;-56
2021/03/23 00:30:38;;;;;;;11.18;3.63;;;;;;;-1.60;66.43;98824.94;3548816;27;20550;-56
2021/03/23 00:32:20;;;;;;;9.80;4.32;;;;;;;-1.63;67.05;98827.31;3551282;27;20503;-57
2021/03/23 00:34:04;;;;;;;9.55;3.17;;;;;;;-1.67;67.29;98824.63;3552214;27;20541;-55
2021/03/23 00:35:46;;;;;;;;;;;;;;;-1.72;66.94;98826.09;3550582;27;20245;-56
2021/03/23 00:37:27;;;;;;;5.50;2.65;;;;;;;-1.76;67.33;98824.19;3550923;27;20363;-56
2021/03/23 00:39:11;;;;;;;8.15;2.97;;;;;;;-1.79;67.52;98821.50;3551369;27;20046;-56
2021/03/23 00:40:53;;;;;;;7.35;2.65;;;;;;;-1.83;67.71;98818.75;3551947;27;20039;-55
2021/03/23 00:42:35;;;;;;;5.60;2.50;;;;;;;-1.86;67.29;98822.88;3548458;27;20043;-56
2021/03/23 00:44:16;;;;;;;7.97;2.60;;;;;;;-1.89;67.82;98824.41;3550562;27;20499;-56
2021/03/23 00:45:58;;;;;;;6.00;2.42;;;;;;;-1.91;67.75;98825.97;3549473;27;20560;-57
2021/03/23 00:47:40;;;;;;;6.05;2.67;;;;;;;-1.94;67.63;98824.16;3548744;27;20051;-57
2021/03/23 00:49:25;;;;;;;7.75;3.25;;;;;;;-1.96;67.76;98822.38;3552027;27;20059;-56
2021/03/23 00:51:07;;;;;;;7.72;2.97;;;;;;;-1.99;67.87;98824.75;3548605;27;20047;-58
2021/03/23 00:52:48;;;;;;;7.97;3.35;;;;;;;-2.01;67.90;98823.81;3552297;27;20051;-56
2021/03/23 00:54:30;;;;;;;6.68;3.42;;;;;;;-2.05;68.05;98823.66;3548516;27;20050;-57
2021/03/23 00:56:11;;;;;;;7.22;3.15;;;;;;;-2.06;68.13;98821.03;3550131;27;20053;-57
2021/03/23 00:57:52;;;;;;;7.90;2.85;;;;;;;-2.08;67.90;98820.94;3550575;27;20078;-55
2021/03/23 00:59:34;;;;;;;7.47;2.58;;;;;;;-2.10;68.20;98821.69;3548650;27;20039;-56
2021/03/23 01:01:16;;;;;;;8.90;2.65;;;;;;;-2.12;68.35;98819.06;3552242;27;20077;-57
2021/03/23 01:02:58;;;;;;;8.15;2.67;;;;;;;-2.14;68.43;98818.13;3551652;27;20135;-56
2021/03/23 01:04:40;;;;;;;7.20;3.20;;;;;;;-2.15;68.03;98821.44;3554568;27;20153;-56
2021/03/23 01:06:25;;;;;;;7.53;2.75;;;;;;;-2.18;68.29;98823.81;3553209;27;20079;-55
2021/03/23 01:08:07;;;;;;;7.22;3.05;;;;;;;-2.19;68.25;98818.66;3554490;27;20049;-52
2021/03/23 01:09:49;;;;;;;8.07;2.42;;;;;;;-2.24;68.55;98821.84;3553618;27;20051;-56
2021/03/23 01:11:30;;;;;;;7.88;3.13;;;;;;;-2.28;68.13;98824.19;3553256;27;20046;-55
2021/03/23 01:13:12;;;;;;;8.35;4.07;;;;;;;-2.33;68.71;98818.00;3541002;27;20085;-57
2021/03/23 01:14:53;;;;;;;12.18;3.63;;;;;;;-2.36;68.89;98817.81;3553191;27;20043;-56
2021/03/23 01:16:35;;;;;;;9.52;3.70;;;;;;;-2.40;68.49;98824.41;3554825;27;20058;-56
2021/03/23 01:18:17;;;;;;;11.32;3.85;;;;;;;-2.45;69.35;98821.63;3553159;27;20441;-56
2021/03/23 01:19:58;;;;;;;10.15;3.30;;;;;;;-2.48;69.38;98828.22;3552520;27;20122;-55
2021/03/23 01:21:40;;;;;;;9.23;2.97;;;;;;;-2.51;69.53;98817.91;3552939;27;20054;-50
2021/03/23 01:23:21;;;;;;;10.80;3.50;;;;;;;-2.56;69.63;98820.22;3553542;27;20074;-52
2021/03/23 01:25:03;;;;;;;7.53;3.22;;;;;;;-2.59;70.04;98821.72;3554280;27;20043;-51
2021/03/23 01:26:45;;;;;;;9.13;3.17;;;;;;;-2.62;70.43;98825.84;3550653;27;20135;-49
2021/03/23 01:28:26;;;;;;;7.32;2.97;;;;;;;-2.64;70.57;98819.81;3554479;27;20046;-50
2021/03/23 01:30:10;;;;;;;4.82;2.53;;;;;;;-2.66;70.69;98829.00;3552177;27;20095;-50
2021/03/23 01:31:52;;;;;;;;;;;;;;;-2.68;70.42;98829.75;3551959;27;20049;-50
2021/03/23 01:33:36;;;;;;;8.65;3.03;;;;;;;-2.70;70.65;98826.25;3553159;27;19923;-50
2021/03/23 01:35:18;;;;;;;6.30;3.00;;;;;;;-2.72;71.03;98830.38;3550881;27;20130;-49
2021/03/23 01:37:00;;;;;;;8.68;3.22;;;;;;;-2.75;70.90;98831.06;3554029;27;20051;-50
2021/03/23 01:38:41;;;;;;;9.73;3.60;;;;;;;-2.74;71.01;98834.47;3550508;27;20525;-49
2021/03/23 01:40:25;;;;;;;13.23;4.03;;;;;;;-2.75;71.31;98831.06;3553650;27;20126;-51
2021/03/23 01:42:09;;;;;;;11.25;4.43;;;;;;;-2.76;71.17;98834.38;3551054;27;20400;-49
2021/03/23 01:43:52;;;;;;;;;;;;;;;-2.76;71.22;98831.00;3551444;27;20050;-51
2021/03/23 01:45:35;;;;;;;8.30;3.75;;;;;;;-2.77;71.27;98822.50;3554844;27;19968;-49
2021/03/23 01:47:17;;;;;;;11.95;4.93;;;;;;;-2.76;71.63;98821.69;3551894;27;20376;-50
2021/03/23 01:49:00;;;;;;;12.93;3.90;;;;;;;-2.75;71.48;98826.00;3554143;27;20070;-53
2021/03/23 01:50:42;;;;;;;8.95;4.03;;;;;;;-2.75;71.74;98825.13;3550761;27;20046;-51
2021/03/23 01:52:24;;;;;;;11.48;4.45;;;;;;;-2.76;71.54;98825.91;3553733;27;20051;-49
2021/03/23 01:54:11;;;;;;;9.15;3.25;;;;;;;-2.75;71.13;98827.69;3553770;27;20123;-49
2021/03/23 01:55:52;;;;;;;11.32;3.72;;;;;;;-2.76;71.45;98824.25;3550646;27;20043;-49
2021/03/23 01:57:35;;;;;;;9.68;3.53;;;;;;;-2.76;71.38;98821.69;3553991;27;20055;-50
2021/03/23 01:59:18;;;;;;;10.05;3.35;;;;;;;-2.80;70.97;98822.34;3550522;27;20426;-50
2021/03/23 02:01:00;;;;;;;8.57;4.18;;;;;;;-2.82;71.43;98823.94;3553968;27;20103;-50
2021/03/23 02:02:43;;;;;;;12.00;4.18;;;;;;;-2.83;72.06;98822.19;3550442;27;20138;-50
2021/03/23 02:04:25;;;;;;;9.18;3.63;;;;;;;-2.85;71.80;98823.75;3552087;27;20046;-49
2021/03/23 02:06:28;;;;;;;12.43;3.97;;;;;;;-2.89;70.95;98825.28;3552806;27;20062;-50
2021/03/23 02:08:10;;;;;;;7.90;4.05;;;;;;;-2.92;71.84;98825.09;3550632;27;20046;-50
2021/03/23 02:09:54;;;;;;;8.10;3.78;;;;;;;-2.95;71.90;98824.97;3553651;27;20070;-50
2021/03/23 02:11:43;;;;;;;10.10;4.60;;;;;;;-2.99;71.72;98823.03;3550639;27;20050;-50
2021/03/23 02:13:25;;;;;;;10.25;3.60;;;;;;;-3.03;71.49;98821.13;3549959;27;20116;-53
2021/03/23 02:15:07;;;;;;;10.95;3.60;;;;;;;-3.03;71.91;98823.66;3552049;27;20050;-49
2021/03/23 02:16:49;;;;;;;8.65;3.88;;;;;;;-3.07;71.96;98822.63;3550262;27;20039;-58
2021/03/23 02:18:31;;;;;;;8.63;3.88;;;;;;;-3.09;72.52;98829.28;3553901;27;20046;-57
2021/03/23 02:20:16;;;;;;;6.13;3.08;;;;;;;-3.12;71.51;98823.19;3552541;27;20047;-50
2021/03/23 02:21:58;;;;;;;9.93;3.97;;;;;;;-3.16;71.65;98823.78;3551772;27;20066;-49
2021/03/23 02:23:42;;;;;;;11.65;3.45;;;;;;;-3.24;71.38;98819.19;3552298;27;20047;-50
2021/03/23 02:25:25;;;;;;;8.38;3.80;;;;;;;-3.27;71.80;98823.22;3550184;27;20043;-51
2021/03/23 02:27:07;;;;;;;8.63;3.80;;;;;;;-3.31;72.16;98822.19;3553897;27;20080;-52
2021/03/23 02:28:53;;;;;;;7.97;4.22;;;;;;;-3.36;72.70;98820.19;3550036;27;20121;-50
2021/03/23 02:30:39;;;;;;;6.78;3.70;;;;;;;-3.38;72.64;98822.63;3553270;27;20057;-50
2021/03/23 02:32:20;;;;;;;10.38;4.40;;;;;;;-3.40;72.95;98826.75;3552531;27;20050;-51
2021/03/23 02:34:04;;;;;;;8.95;4.30;;;;;;;-3.43;72.98;98824.94;3551638;27;20133;-50
2021/03/23 02:35:46;;;;;;;10.45;4.40;;;;;;;-3.44;73.29;98825.72;3552309;27;20490;-50
2021/03/23 02:37:28;;;;;;;7.78;3.47;;;;;;;-3.44;73.40;98837.53;3549932;27;20553;-50
2021/03/23 02:39:12;;;;;;;6.25;3.50;;;;;;;-3.46;73.79;98832.38;3553784;27;20050;-49
2021/03/23 02:40:54;;;;;;;7.93;2.90;;;;;;;-3.44;73.99;98829.91;3552278;27;20057;-50
2021/03/23 02:42:35;;;;;;;7.22;3.83;;;;;;;-3.42;73.84;98829.19;3552777;27;20046;-51
2021/03/23 02:44:16;;;;;;;5.90;3.17;;;;;;;-3.40;73.64;98832.69;3553254;27;20507;-50
2021/03/23 02:45:58;;;;;;;6.35;3.03;;;;;;;-3.39;74.02;98831.03;3551038;27;20507;-50
2021/03/23 02:47:39;;;;;;;12.57;3.88;;;;;;;-3.39;74.27;98831.03;3552653;27;20051;-49
2021/03/23 02:49:21;;;;;;;8.10;3.63;;;;;;;-3.39;74.04;98831.91;3552372;27;20053;-52
2021/03/23 02:51:03;;;;;;;9.27;3.10;;;;;;;-3.38;74.04;98836.22;3553443;27;20532;-50
2021/03/23 02:52:45;;;;;;;5.30;3.03;;;;;;;-3.36;74.06;98831.19;3552453;27;20042;-50
2021/03/23 02:54:26;;;;;;;8.05;3.67;;;;;;;-3.34;73.93;98831.28;3552609;27;20050;-50
2021/03/23 02:56:07;;;;;;;9.88;3.00;;;;;;;-3.32;74.00;98828.06;3550810;27;20043;-50
2021/03/23 02:57:49;;;;;;;6.85;2.72;;;;;;;-3.31;73.98;98834.84;3550977;27;20504;-51
2021/03/23 02:59:30;;;;;;;9.23;2.88;;;;;;;-3.28;74.19;98834.16;3552078;27;20046;-51
2021/03/23 03:01:14;;;;;;;8.02;2.78;;;;;;;-3.31;74.10;98842.47;3549750;27;20047;-50
2021/03/23 03:02:55;;;;;;;6.88;3.13;;;;;;;-3.31;74.13;98839.94;3553581;27;20050;-50
2021/03/23 03:04:39;;;;;;;6.07;2.72;;;;;;;-3.32;73.79;98842.38;3549637;27;20047;-51
2021/03/23 03:06:20;;;;;;;7.83;3.13;;;;;;;-3.32;73.97;98839.84;3552197;27;20058;-50
2021/03/23 03:08:02;;;;;;;9.88;2.97;;;;;;;-3.32;73.57;98832.22;3551023;27;20055;-50
2021/03/23 03:09:43;;;;;;;6.63;3.00;;;;;;;-3.33;73.66;98838.97;3551180;27;20043;-50
2021/03/23 03:11:25;;;;;;;7.93;3.05;;;;;;;-3.36;73.66;98836.25;3552008;27;20429;-56
2021/03/23 03:13:07;;;;;;;9.35;3.72;;;;;;;-3.36;74.15;98832.88;3548217;27;20072;-57
2021/03/23 03:14:48;;;;;;;6.85;3.47;;;;;;;-3.39;73.74;98833.59;3553169;27;20047;-55
2021/03/23 03:16:30;;;;;;;8.98;3.03;;;;;;;-3.42;73.75;98835.94;3551950;27;20058;-56
2021/03/23 03:18:11;;;;;;;8.98;3.75;;;;;;;-3.45;74.07;98830.69;3552657;27;20065;-56
2021/03/23 03:19:53;;;;;;;8.43;3.60;;;;;;;-3.47;74.27;98830.59;3550512;27;20095;-55
2021/03/23 03:21:34;;;;;;;10.18;3.47;;;;;;;-3.48;74.41;98836.47;3551766;27;20416;-57
2021/03/23 03:23:17;;;;;;;9.20;3.83;;;;;;;-3.49;74.45;98834.72;3553028;27;20054;-55
2021/03/23 03:24:58;;;;;;;5.40;2.72;;;;;;;-3.48;74.62;98833.06;3553152;27;20088;-56
2021/03/23 03:26:39;;;;;;;12.88;3.35;;;;;;;-3.48;74.69;98833.06;3552932;27;20042;-56
2021/03/23 03:28:21;;;;;;;8.68;3.38;;;;;;;-3.49;74.90;98834.72;3551650;27;20042;-56
2021/03/23 03:30:06;;;;;;;9.98;3.47;;;;;;;-3.48;74.77;98828.88;3552503;27;20081;-57
2021/03/23 03:31:47;;;;;;;7.93;3.40;;;;;;;-3.49;74.47;98834.72;3550801;27;20038;-57
2021/03/23 03:33:29;;;;;;;9.23;3.58;;;;;;;-3.51;74.50;98832.91;3551831;27;20118;-55
2021/03/23 03:35:20;;;;;;;5.68;3.10;;;;;;;-3.52;74.71;98834.53;3552784;27;20057;-57
2021/03/23 03:37:02;;;;;;;7.80;3.27;;;;;;;-3.54;74.57;98836.13;3550485;27;20530;-56
2021/03/23 03:38:44;;;;;;;8.57;3.30;;;;;;;-3.57;74.35;98839.38;3553137;27;20279;-56
2021/03/23 03:40:29;;;;;;;7.85;3.72;;;;;;;-3.60;74.07;98841.72;3549356;27;20051;-56
2021/03/23 03:42:11;;;;;;;10.40;3.78;;;;;;;-3.64;74.45;98839.81;3550809;27;20045;-57
2021/03/23 03:43:52;;;;;;;6.90;3.05;;;;;;;-3.66;74.69;98845.56;3551839;27;20255;-56
2021/03/23 03:45:34;;;;;;;5.07;3.03;;;;;;;-3.69;74.69;98847.97;3549411;27;20081;-57
2021/03/23 03:47:16;;;;;;;7.63;3.80;;;;;;;-3.71;74.58;98847.88;3552776;27;20108;-54
2021/03/23 03:48:57;;;;;;;9.07;3.42;;;;;;;-3.74;75.02;98837.56;3549204;27;20145;-56
2021/03/23 03:50:39;;;;;;;9.23;3.97;;;;;;;-3.78;75.65;98839.03;3552372;27;20046;-56
2021/03/23 03:52:20;;;;;;;6.97;3.20;;;;;;;-3.78;75.49;98841.59;3549587;27;20119;-57
2021/03/23 03:54:05;;;;;;;8.77;3.20;;;;;;;-3.79;75.56;98838.97;3551751;27;20522;-55
2021/03/23 03:55:46;;;;;;;8.90;3.55;;;;;;;-3.81;75.48;98846.47;3551194;27;20050;-56
2021/03/23 03:57:27;;;;;;;8.32;3.70;;;;;;;-3.83;75.11;98844.66;3549229;27;20058;-55
2021/03/23 03:59:09;;;;;;;10.35;4.25;;;;;;;-3.85;75.09;98847.09;3552971;27;20519;-56
2021/03/23 04:00:50;;;;;;;7.45;3.42;;;;;;;-3.86;75.31;98850.41;3549063;27;20433;-56
2021/03/23 04:02:32;;;;;;;6.43;3.65;;;;;;;-3.83;75.23;98852.25;3552128;27;20043;-56
2021/03/23 04:04:13;;;;;;;9.48;3.83;;;;;;;-3.86;75.10;98852.94;3550880;27;20059;-56
2021/03/23 04:05:57;;;;;;;7.22;3.65;;;;;;;-3.85;75.40;98856.31;3550351;27;20050;-55
2021/03/23 04:07:38;;;;;;;9.40;4.07;;;;;;;-3.84;75.78;98853.03;3551712;27;20563;-56
2021/03/23 04:09:20;;;;;;;7.13;3.80;;;;;;;-3.81;76.08;98855.75;3549076;27;20054;-56
2021/03/23 04:11:05;;;;;;;11.30;4.10;;;;;;;-3.79;76.24;98856.69;3552615;27;20050;-56
2021/03/23 04:12:47;;;;;;;9.75;3.78;;;;;;;-3.77;76.19;98850.03;3549106;27;20042;-54
2021/03/23 04:14:28;;;;;;;7.95;3.50;;;;;;;-3.76;76.09;98850.13;3550722;27;20046;-55
2021/03/23 04:16:10;;;;;;;9.20;3.72;;;;;;;-3.72;76.05;98861.31;3549699;27;20054;-50
2021/03/23 04:17:51;;;;;;;10.15;4.57;;;;;;;-3.71;75.98;98865.63;3551341;27;20423;-50
2021/03/23 04:19:33;;;;;;;8.27;3.42;;;;;;;-3.71;76.21;98859.66;3551211;27;20502;-50
2021/03/23 04:21:14;;;;;;;6.88;3.35;;;;;;;-3.69;76.28;98860.63;3549192;27;20050;-51
2021/03/23 04:22:56;;;;;;;8.05;4.18;;;;;;;-3.66;76.24;98856.63;3552500;27;20046;-49
2021/03/23 04:24:38;;;;;;;7.45;3.70;;;;;;;-3.63;75.57;98869.44;3548414;27;20050;-50
2021/03/23 04:26:19;;;;;;;11.13;5.05;;;;;;;-3.59;75.58;98857.81;3551672;27;20511;-49
2021/03/23 04:28:01;;;;;;;8.05;3.40;;;;;;;-3.54;75.83;98866.53;3550776;27;20078;-50
2021/03/23 04:29:43;;;;;;;9.23;4.22;;;;;;;-3.51;75.87;98859.13;3551642;27;20074;-50
2021/03/23 04:31:32;;;;;;;8.88;3.20;;;;;;;-3.47;76.02;98858.50;3552182;27;20086;-50
2021/03/23 04:33:14;;;;;;;7.35;3.88;;;;;;;-3.41;75.73;98865.59;3548792;27;20232;-51
2021/03/23 04:34:56;;;;;;;9.15;4.22;;;;;;;-3.35;75.46;98860.84;3552331;27;20419;-49
2021/03/23 04:36:38;;;;;;;9.30;3.70;;;;;;;-3.29;75.41;98860.31;3548641;27;20047;-49
2021/03/23 04:38:21;;;;;;;10.30;3.35;;;;;;;-3.24;75.21;98858.88;3552950;27;20047;-51
2021/03/23 04:40:05;;;;;;;7.85;3.85;;;;;;;-3.19;75.12;98862.56;3553053;27;20061;-52
2021/03/23 04:41:46;;;;;;;6.95;3.33;;;;;;;-3.13;74.91;98862.00;3551363;27;20046;-52
2021/03/23 04:43:30;;;;;;;8.20;3.88;;;;;;;-3.08;74.34;98864.00;3553743;27;20051;-50
2021/03/23 04:45:12;;;;;;;7.70;3.95;;;;;;;-3.00;74.34;98864.44;3551386;27;20042;-50
2021/03/23 04:46:53;;;;;;;8.88;4.00;;;;;;;-2.92;74.74;98863.16;3554866;27;20099;-50
2021/03/23 04:48:35;;;;;;;10.25;3.97;;;;;;;-2.83;74.40;98865.31;3551173;27;20499;-50
2021/03/23 04:50:18;;;;;;;9.32;3.55;;;;;;;-2.76;73.99;98857.22;3552814;27;20450;-52
2021/03/23 04:51:59;;;;;;;11.07;3.90;;;;;;;-2.69;73.80;98860.97;3553163;27;20097;-49
2021/03/23 04:53:42;;;;;;;10.55;3.90;;;;;;;-2.63;73.63;98862.19;3552246;27;20073;-52
2021/03/23 04:55:24;;;;;;;12.38;4.32;;;;;;;-2.53;73.25;98865.19;3554166;27;20514;-53
2021/03/23 04:57:06;;;;;;;11.20;3.97;;;;;;;-2.47;72.93;98871.47;3551359;27;20099;-50
2021/03/23 04:58:48;;;;;;;12.43;4.25;;;;;;;-2.40;72.53;98864.19;3554729;27;20051;-50
2021/03/23 05:00:29;;;;;;;8.85;4.32;;;;;;;-2.31;72.52;98865.50;3552193;27;20050;-50
2021/03/23 05:02:11;;;;;;;7.80;4.10;;;;;;;-2.23;72.10;98870.97;3552660;27;20047;-50
2021/03/23 05:03:54;;;;;;;9.85;3.95;;;;;;;-2.16;71.73;98865.44;3553378;27;20047;-50
2021/03/23 05:05:36;;;;;;;10.82;4.38;;;;;;;-2.07;71.91;98868.44;3553268;27;20054;-51
2021/03/23 05:07:19;;;;;;;11.15;3.75;;;;;;;-1.95;71.78;98867.28;3554674;27;20077;-51
2021/03/23 05:09:00;;;;;;;13.45;4.80;;;;;;;-1.86;71.44;98865.19;3552262;27;20125;-50
2021/03/23 05:10:42;;;;;;;13.20;5.07;;;;;;;-1.78;70.93;98861.38;3554576;27;20050;-50
2021/03/23 05:12:23;;;;;;;11.52;4.45;;;;;;;-1.70;71.26;98856.66;3551218;27;20050;-50
2021/03/23 05:14:07;;;;;;;15.60;5.13;;;;;;;-1.60;71.06;98865.63;3551094;27;20058;-51
2021/03/23 05:15:48;;;;;;;10.18;4.55;;;;;;;-1.52;69.72;98865.19;3552796;27;20503;-50
2021/03/23 05:17:29;;;;;;;10.63;4.10;;;;;;;-1.44;68.87;98864.69;3551290;27;20058;-51
2021/03/23 05:19:11;;;;;;;10.50;4.32;;;;;;;-1.35;68.89;98867.66;3540306;28;20050;-50
2021/03/23 05:20:53;;;;;;;10.38;3.95;;;;;;;-1.24;68.73;98863.97;3549045;27;20054;-51
2021/03/23 05:22:34;;;;;;;14.25;4.40;;;;;;;-1.16;68.11;98866.88;3554579;27;20057;-51
2021/03/23 05:24:16;;;;;;;10.63;4.53;;;;;;;-1.08;68.37;98868.09;3555005;27;20051;-50
2021/03/23 05:25:59;;;;;;;12.73;4.70;;;;;;;-1.01;67.34;98870.13;3550876;27;20133;-51
2021/03/23 05:27:40;;;;;;;10.30;4.22;;;;;;;-0.92;67.45;98865.47;3554345;27;20054;-51
2021/03/23 05:29:21;;;;;;;12.38;4.88;;;;;;;-0.81;67.53;98872.72;3550814;27;20416;-50
2021/03/23 05:31:04;;;;;;;12.10;4.78;;;;;;;-0.75;66.88;98863.69;3554582;27;20066;-50
2021/03/23 05:32:45;;;;;;;12.80;5.00;;;;;;;-0.63;66.73;98872.69;3550813;27;20073;-52
2021/03/23 05:34:27;;;;;;;9.35;3.58;;;;;;;-0.56;65.56;98869.59;3552975;27;20499;-50
2021/03/23 05:36:09;;;;;;;7.82;4.20;;;;;;;-0.51;65.56;98877.47;3552359;27;20054;-50
2021/03/23 05:37:51;;;;;;;13.45;5.90;;;;;;;-0.51;65.56;98878.31;3549713;27;20042;-50
2021/03/23 05:39:32;;;;;;;10.38;5.15;;;;;;;-0.49;65.97;98875.84;3554006;27;20103;-54
2021/03/23 05:41:22;;;;;;;11.93;4.93;;;;;;;-0.44;66.87;98877.78;3550669;27;20038;-50
2021/03/23 05:43:25;;;;;;;11.18;4.45;;;;;;;-0.36;65.50;98875.56;3554483;27;20055;-51
2021/03/23 05:45:15;;;;;;;12.52;4.55;;;;;;;-0.25;65.31;98879.47;3551966;27;20504;-50
2021/03/23 05:46:58;;;;;;;11.70;4.72;;;;;;;-0.20;64.71;98880.53;3550811;27;20047;-52
2021/03/23 05:48:53;;;;;;;10.85;4.15;;;;;;;-0.16;63.67;98874.75;3554193;27;20054;-51
2021/03/23 05:50:37;;;;;;;10.18;3.78;;;;;;;-0.18;63.19;98881.47;3551844;27;20046;-51
2021/03/23 05:52:26;;;;;;;11.02;4.55;;;;;;;-0.22;64.04;98869.41;3552180;27;20107;-51
2021/03/23 05:54:18;;;;;;;9.70;4.35;;;;;;;-0.13;64.53;98879.09;3554327;27;20047;-50
2021/03/23 05:56:02;;;;;;;10.68;4.57;;;;;;;-0.04;64.03;98876.09;3550555;27;20114;-51
2021/03/23 05:57:46;;;;;;;12.23;4.88;;;;;;;-0.01;63.10;98871.13;3553986;27;20082;-51
2021/03/23 05:59:36;;;;;;;9.02;4.55;;;;;;;0.05;64.24;98871.41;3550432;27;20038;-51
2021/03/23 06:01:21;;;;;;;6.70;3.78;;;;;;;0.07;62.87;98863.81;3551909;27;20587;-49
2021/03/23 06:03:14;;;;;;;9.75;4.43;;;;;;;0.09;62.94;98874.94;3553791;27;20145;-49
2021/03/23 06:05:04;;;;;;;7.47;3.70;;;;;;;0.13;62.85;98867.47;3552679;27;20039;-50
2021/03/23 06:06:55;;;;;;;11.05;4.18;;;;;;;0.17;62.26;98869.38;3553757;27;20095;-50
2021/03/23 06:08:37;;;;;;;8.85;3.65;;;;;;;0.25;62.04;98869.66;3553129;27;20113;-52
2021/03/23 06:10:21;;;;;;;9.35;3.63;;;;;;;0.30;62.35;98870.72;3550624;27;20058;-50
2021/03/23 06:12:21;;;;;;;12.07;4.45;;;;;;;0.45;63.21;98877.28;3554913;27;20046;-51
2021/03/23 06:14:19;;;;;;;12.02;4.28;;;;;;;0.61;60.89;98872.84;3552134;27;20446;-53
2021/03/23 06:16:13;;;;;;;14.63;4.78;;;;;;;0.72;59.50;98874.94;3552645;27;20133;-53
2021/03/23 06:18:00;;;;;;;12.13;4.07;;;;;;;0.82;59.91;98876.19;3553761;27;20507;-52
2021/03/23 06:19:45;;;;;;;10.50;4.25;;;;;;;0.93;59.67;98885.13;3550192;27;20038;-54
2021/03/23 06:21:36;;;;;;;10.30;3.97;;;;;;;1.06;60.62;98877.16;3553761;27;20115;-55
2021/03/23 06:23:40;;;;;;;11.40;4.28;;;;;;;1.23;58.91;98876.91;3552582;27;20050;-47
2021/03/23 06:25:29;;;;;;;9.90;3.65;;;;;;;1.36;57.51;98881.69;3551714;27;20085;-51
2021/03/23 06:27:20;;;;;;;9.55;4.07;;;;;;;1.42;56.42;98887.00;3553856;27;20058;-48
2021/03/23 06:29:09;;;;;;;9.63;3.90;;;;;;;1.50;57.00;98885.63;3550121;27;20095;-49
2021/03/23 06:30:56;;;;;;;6.22;3.30;;;;;;;1.65;57.53;98882.72;3552046;27;20043;-48
2021/03/23 06:32:46;;;;;;;8.68;4.85;;;;;;;1.79;57.01;98890.03;3553488;27;20043;-50
2021/03/23 06:34:31;;;;;;;9.38;4.10;;;;;;;1.89;54.70;98887.88;3550168;27;20039;-47
2021/03/23 06:36:20;;;;;;;11.50;4.75;;;;;;;1.94;54.10;98885.47;3553662;27;20050;-50
2021/03/23 06:38:03;;;;;;;10.90;3.78;;;;;;;2.01;54.97;98887.44;3549913;27;20047;-48
2021/03/23 06:39:44;;;;;;;8.95;4.05;;;;;;;2.07;53.40;98881.66;3552182;27;20062;-50
2021/03/23 06:41:27;;;;;;;11.07;4.47;;;;;;;2.11;55.04;98881.81;3551701;27;20078;-50
2021/03/23 06:43:16;;;;;;;11.00;5.28;;;;;;;2.17;52.82;98891.38;3551109;27;20567;-48
2021/03/23 06:45:26;;;;;;;11.65;4.80;;;;;;;2.26;52.50;98889.13;3538939;28;20047;-48
2021/03/23 06:47:34;;;;;;;10.20;4.68;;;;;;;2.48;53.70;98894.97;3548775;27;20536;-48
2021/03/23 06:49:31;;;;;;;10.88;4.63;;;;;;;2.55;51.58;98890.94;3552118;27;20042;-48
2021/03/23 06:51:16;;;;;;;10.45;3.70;;;;;;;2.67;52.66;98892.19;3553619;27;20050;-50
2021/03/23 06:53:08;;;;;;;8.00;4.35;;;;;;;2.76;52.13;98896.75;3550203;27;20119;-50
2021/03/23 06:55:21;;;;;;;9.68;4.28;;;;;;;2.78;50.41;98895.09;3550763;27;20047;-50
2021/03/23 06:57:07;;;;;;;7.68;3.58;;;;;;;2.86;51.58;98898.78;3539456;28;20054;-48
2021/03/23 06:59:09;;;;;;;9.75;3.85;;;;;;;2.97;51.40;98890.56;3548638;27;20527;-48
2021/03/23 07:01:09;;;;;;;6.93;3.30;;;;;;;3.08;50.44;98892.66;3549363;27;20427;-49
2021/03/23 07:02:54;;;;;;;5.55;3.30;;;;;;;3.15;49.55;98892.81;3539134;28;20051;-50
2021/03/23 07:04:38;;;;;;;6.15;2.40;;;;;;;3.16;46.91;98892.88;3547605;27;20049;-49
2021/03/23 07:06:27;;;;;;;8.98;3.78;;;;;;;3.18;47.62;98888.66;3552884;27;20095;-49
2021/03/23 07:08:24;;;;;;;5.47;2.50;;;;;;;3.24;48.52;98891.41;3553566;27;20049;-49
2021/03/23 07:10:17;;;;;;;6.47;2.95;;;;;;;3.29;47.46;98891.53;3549953;27;20090;-50
2021/03/23 07:12:00;;;;;;;7.55;2.65;;;;;;;3.41;46.44;98886.78;3553226;27;20078;-49
2021/03/23 07:13:43;;;;;;;7.15;2.72;;;;;;;3.52;47.99;98886.22;3548054;27;20103;-52
2021/03/23 07:15:28;;;;;;;5.85;2.55;;;;;;;3.58;46.80;98892.41;3551319;27;20422;-51
2021/03/23 07:17:26;;;;;;;7.63;2.60;;;;;;;3.62;48.20;98890.81;3551626;27;20051;-50
2021/03/23 07:19:10;;;;;;;7.85;3.00;;;;;;;3.68;46.15;98885.81;3549839;27;20076;-49
2021/03/23 07:21:03;;;;;;;7.43;3.20;;;;;;;3.75;45.34;98880.03;3552889;27;20505;-52
2021/03/23 07:22:50;;;;;;;4.15;1.90;;;;;;;3.82;45.99;98884.53;3552279;27;20050;-52
2021/03/23 07:24:33;;;;;;;6.32;2.38;;;;;;;3.97;47.36;98886.66;3550114;27;20047;-50
2021/03/23 07:26:28;;;;;;;4.57;1.77;;;;;;;4.08;45.72;98883.50;3551854;27;20059;-52
2021/03/23 07:28:23;;;;;;;4.28;1.88;;;;;;;4.16;45.97;98889.69;3549744;27;20047;-50
2021/03/23 07:30:25;;;;;;;5.63;1.92;;;;;;;4.20;45.69;98883.84;3552834;27;20046;-49
2021/03/23 07:32:37;;;;;;;6.15;1.90;;;;;;;4.26;46.90;98889.13;3553585;27;20507;-52
2021/03/23 07:34:24;;;;;;;6.00;2.40;;;;;;;4.21;43.74;98885.56;3539190;27;20423;-53
2021/03/23 07:36:09;;;;;;;3.97;1.88;;;;;;;4.19;40.41;98887.22;3551703;27;20538;-52
2021/03/23 07:37:58;;;;;;;6.82;2.05;;;;;;;4.17;43.55;98886.31;3550421;27;20123;-54
2021/03/23 07:39:44;;;;;;;5.13;1.88;;;;;;;4.14;42.52;98886.22;3549213;27;20035;-53
2021/03/23 07:41:31;;;;;;;5.05;1.95;;;;;;;4.06;44.00;98878.34;3538606;28;20055;-53
2021/03/23 07:43:30;;;;;;;6.03;2.08;;;;;;;3.94;42.39;98891.69;3547424;27;20051;-53
2021/03/23 07:45:20;;;;;;;4.25;1.63;;;;;;;3.95;45.10;98896.00;3550822;27;20054;-54
2021/03/23 07:47:09;;;;;;;7.63;2.05;;;;;;;4.08;44.95;98886.94;3551732;27;20534;-53
2021/03/23 07:48:59;;;;;;;6.07;2.10;;;;;;;4.22;44.29;98882.16;3549170;27;20423;-54
2021/03/23 07:50:44;;;;;;;4.57;2.17;;;;;;;4.43;43.78;98883.56;3552971;27;20063;-53
2021/03/23 07:52:30;;;;;;;6.68;2.20;;;;;;;4.67;45.35;98883.28;3549561;27;20043;-52
2021/03/23 07:54:32;;;;;;;5.75;1.80;;;;;;;4.92;42.46;98875.34;3549791;27;20495;-54
2021/03/23 07:56:31;;;;;;;7.50;2.00;;;;;;;5.05;40.40;98870.47;3538414;28;20107;-55
2021/03/23 07:58:41;;;;;;;7.38;1.55;;;;;;;5.27;41.51;98870.13;3548928;27;20050;-54
2021/03/23 08:00:35;;;;;;;3.10;1.55;;;;;;;5.43;40.44;98866.19;3549791;27;20042;-55
2021/03/23 08:02:38;;;;;;;3.53;1.48;;;;;;;5.55;40.93;98858.72;3538640;28;20051;-55
2021/03/23 08:04:32;;;;;;;3.97;1.52;;;;;;;5.56;36.54;98867.31;3551777;27;20093;-55
2021/03/23 08:06:23;;;;;;;2.80;1.23;;;;;;;5.48;37.81;98869.72;3550164;27;20506;-55
2021/03/23 08:08:21;;;;;;;3.63;1.17;;;;;;;5.30;36.34;98869.31;3538407;28;20070;-55
2021/03/23 08:10:25;;;;;;;3.60;1.10;;;;;;;5.33;39.25;98870.25;3547819;27;20069;-54
2021/03/23 08:12:24;;;;;;;3.72;1.30;;;;;;;5.45;38.54;98858.50;3551236;27;20133;-53
2021/03/23 08:14:22;;;;;;;2.97;1.30;;;;;;;5.69;38.61;98864.13;3546485;27;20046;-56
2021/03/23 08:16:15;;;;;;;3.72;1.45;;;;;;;5.81;36.30;98863.50;3550006;27;20061;-56